Time;durP1;ratioP1;P1;durP2;ratioP2;P2;SDS_P1;SDS_P2;PMS_P1;PMS_P2;Temp;Humidity;BMP_temperature;BMP_pressure;BME280_temperature;BME280_humidity;BME280_pressure;Samples;Min_cycle;Max_cycle;Signal;HPM_P1;HPM_P2
2023/12/30 00:00:51;;;;;;;0.73;0.73;;;;;;;8.24;100.00;98368.41;4166152;28;20220;-49
2023/12/30 00:02:52;;;;;;;0.80;0.80;;;;;;;8.24;100.00;98369.25;4167209;28;20219;-50
2023/12/30 00:04:54;;;;;;;1.05;1.05;;;;;;;8.26;100.00;98374.44;4169052;28;20219;-50
2023/12/30 00:06:56;;;;;;;1.40;0.90;;;;;;;8.26;100.00;98383.47;4169623;28;20296;-50
2023/12/30 00:08:58;;;;;;;0.60;0.60;;;;;;;8.24;100.00;98390.22;4171486;28;20634;-50
2023/12/30 00:10:59;;;;;;;0.63;0.63;;;;;;;8.31;100.00;98382.75;4169704;28;20208;-50
2023/12/30 00:13:02;;;;;;;0.70;0.70;;;;;;;8.30;100.00;98389.28;4170446;28;20212;-50
2023/12/30 00:15:05;;;;;;;1.25;0.75;;;;;;;8.28;100.00;98383.22;4170487;28;20215;-51
2023/12/30 00:17:07;;;;;;;1.95;1.00;;;;;;;8.29;100.00;98390.34;4167568;28;20203;-50
2023/12/30 00:19:11;;;;;;;0.77;0.77;;;;;;;8.28;100.00;98388.69;4163689;28;20240;-50
2023/12/30 00:21:18;;;;;;;0.80;0.80;;;;;;;8.27;100.00;98397.91;4171200;28;20296;-50
2023/12/30 00:23:20;;;;;;;0.68;0.68;;;;;;;8.29;100.00;98384.88;4168917;28;20581;-50
2023/12/30 00:25:22;;;;;;;0.80;0.80;;;;;;;8.27;100.00;98392.47;4176323;28;20677;-51
2023/12/30 00:27:24;;;;;;;0.88;0.88;;;;;;;8.31;100.00;98393.66;4175027;28;20357;-50
2023/12/30 00:29:26;;;;;;;0.90;0.90;;;;;;;8.29;100.00;98387.63;4173505;28;20239;-50
2023/12/30 00:31:30;;;;;;;0.75;0.73;;;;;;;8.23;100.00;98391.28;4170188;28;20618;-50
2023/12/30 00:33:31;;;;;;;1.42;1.33;;;;;;;8.23;100.00;98380.38;4167599;28;20227;-50
2023/12/30 00:35:33;;;;;;;2.88;2.40;;;;;;;8.23;100.00;98381.19;4168907;28;20206;-51
2023/12/30 00:37:35;;;;;;;0.60;0.60;;;;;;;8.18;100.00;98389.25;4163196;28;20258;-49
2023/12/30 00:39:40;;;;;;;0.80;0.80;;;;;;;8.20;100.00;98386.31;4169084;28;20232;-50
2023/12/30 00:41:41;;;;;;;0.90;0.82;;;;;;;8.18;100.00;98394.72;4167499;28;20216;-50
2023/12/30 00:43:43;;;;;;;2.47;1.55;;;;;;;8.17;100.00;98392.22;4168282;28;20200;-49
2023/12/30 00:45:45;;;;;;;0.60;0.60;;;;;;;8.23;100.00;98396.75;4167170;28;20209;-52
2023/12/30 00:47:47;;;;;;;0.73;0.73;;;;;;;8.15;100.00;98395.16;4174147;28;20239;-51
2023/12/30 00:49:49;;;;;;;0.80;0.80;;;;;;;8.18;100.00;98394.72;4170844;28;20250;-50
2023/12/30 00:51:51;;;;;;;0.60;0.60;;;;;;;8.22;100.00;98395.09;4168513;28;20684;-51
2023/12/30 00:53:53;;;;;;;0.85;0.85;;;;;;;8.24;100.00;98399.25;4166564;28;20204;-50
2023/12/30 00:55:56;;;;;;;0.65;0.65;;;;;;;8.27;100.00;98397.91;4177741;28;20247;-50
2023/12/30 00:57:57;;;;;;;0.85;0.85;;;;;;;8.26;100.00;98396.25;4167936;28;20251;-50
2023/12/30 00:59:59;;;;;;;0.90;0.90;;;;;;;8.29;100.00;98395.78;4172802;28;20247;-50
2023/12/30 01:02:01;;;;;;;0.90;0.90;;;;;;;8.33;100.00;98402.41;4168037;28;20213;-49
2023/12/30 01:04:03;;;;;;;0.77;0.77;;;;;;;8.31;100.00;98404.56;4167963;28;20219;-50
2023/12/30 01:06:05;;;;;;;1.30;1.15;;;;;;;8.34;100.00;98409.53;4167541;28;20204;-50
2023/12/30 01:08:07;;;;;;;0.98;0.90;;;;;;;8.36;100.00;98404.69;4167034;28;20298;-49
2023/12/30 01:10:09;;;;;;;1.17;1.15;;;;;;;8.34;100.00;98395.91;4166559;28;20740;-49
2023/12/30 01:12:10;;;;;;;0.60;0.60;;;;;;;8.31;100.00;98399.94;4171791;28;20295;-49
2023/12/30 01:14:12;;;;;;;1.35;0.98;;;;;;;8.35;100.00;98405.75;4166301;28;20215;-50
2023/12/30 01:16:16;;;;;;;1.10;1.10;;;;;;;8.32;100.00;98395.31;4178820;28;20204;-49
2023/12/30 01:18:18;;;;;;;0.75;0.75;;;;;;;8.30;100.00;98400.16;4176137;28;20687;-49
2023/12/30 01:20:20;;;;;;;0.70;0.70;;;;;;;8.28;100.00;98400.41;4177169;28;20211;-50
2023/12/30 01:22:21;;;;;;;0.80;0.80;;;;;;;8.30;100.00;98408.34;4170121;28;20207;-49
2023/12/30 01:24:26;;;;;;;0.80;0.80;;;;;;;8.32;100.00;98406.22;4167289;28;20204;-50
2023/12/30 01:26:27;;;;;;;0.90;0.90;;;;;;;8.29;100.00;98412.16;4167055;28;20209;-49
2023/12/30 01:28:30;;;;;;;0.73;0.73;;;;;;;8.29;100.00;98414.88;4169889;28;20240;-51
2023/12/30 01:30:32;;;;;;;3.92;1.10;;;;;;;8.35;100.00;98411.19;4166975;28;20204;-50
2023/12/30 01:32:34;;;;;;;1.02;1.02;;;;;;;8.32;100.00;98414.38;4169705;28;20203;-50
2023/12/30 01:34:36;;;;;;;1.02;1.02;;;;;;;8.27;100.00;98409.66;4165119;28;20682;-50
2023/12/30 01:36:38;;;;;;;1.55;0.82;;;;;;;8.31;100.00;98415.47;4168311;28;20760;-51
2023/12/30 01:38:41;;;;;;;0.90;0.90;;;;;;;8.32;100.00;98417.97;4176927;28;20998;-51
2023/12/30 01:40:43;;;;;;;1.05;1.05;;;;;;;8.35;100.00;98416.66;4172262;28;20286;-49
2023/12/30 01:42:45;;;;;;;1.63;1.52;;;;;;;8.34;100.00;98412.28;4176108;28;20713;-49
2023/12/30 01:44:47;;;;;;;4.35;0.70;;;;;;;8.36;100.00;98413.66;4167340;28;20215;-51
2023/12/30 01:46:49;;;;;;;0.88;0.88;;;;;;;8.37;100.00;98409.06;4162658;28;20212;-50
2023/12/30 01:48:50;;;;;;;1.15;1.15;;;;;;;8.31;100.00;98420.91;4164995;28;20255;-50
2023/12/30 01:50:53;;;;;;;1.00;0.90;;;;;;;8.31;100.00;98415.47;4151928;28;20252;-49
2023/12/30 01:52:55;;;;;;;1.08;1.02;;;;;;;8.33;100.00;98413.31;4169807;28;20208;-49
2023/12/30 01:54:56;;;;;;;0.88;0.88;;;;;;;8.28;100.00;98421.41;4170511;28;20270;-50
2023/12/30 01:56:59;;;;;;;0.90;0.90;;;;;;;8.31;100.00;98431.81;4153091;28;20674;-49
2023/12/30 01:59:01;;;;;;;0.80;0.80;;;;;;;8.30;100.00;98435.59;4177376;28;20269;-49
2023/12/30 02:01:03;;;;;;;1.00;1.00;;;;;;;8.26;100.00;98437.13;4167700;28;20658;-49
2023/12/30 02:03:04;;;;;;;0.70;0.70;;;;;;;8.28;100.00;98448.66;4168094;28;20216;-49
2023/12/30 02:05:06;;;;;;;0.82;0.80;;;;;;;8.34;100.00;98453.16;4158288;28;20230;-49
2023/12/30 02:07:08;;;;;;;3.63;1.65;;;;;;;8.32;100.00;98449.81;4173530;28;20275;-49
2023/12/30 02:09:10;;;;;;;1.42;1.30;;;;;;;8.33;100.00;98455.03;4169115;28;20580;-49
2023/12/30 02:11:12;;;;;;;1.63;1.63;;;;;;;8.33;100.00;98456.94;4170876;28;20213;-49
2023/12/30 02:13:14;;;;;;;2.33;1.35;;;;;;;8.39;100.00;98439.63;4185741;28;20246;-49
2023/12/30 02:15:24;;;;;;;2.75;0.90;;;;;;;8.35;100.00;98443.91;4170666;28;20303;-49
2023/12/30 02:17:26;;;;;;;1.10;0.90;;;;;;;8.35;100.00;98449.38;4186787;28;20631;-50
2023/12/30 02:19:28;;;;;;;0.82;0.82;;;;;;;8.33;100.00;98440.56;4169598;28;20229;-49
2023/12/30 02:21:30;;;;;;;0.60;0.60;;;;;;;8.33;100.00;98451.47;4171211;28;20728;-50
2023/12/30 02:23:31;;;;;;;0.73;0.73;;;;;;;8.29;100.00;98440.22;4171017;28;20223;-50
2023/12/30 02:25:33;;;;;;;0.80;0.80;;;;;;;8.25;100.00;98446.38;4169279;28;20702;-50
2023/12/30 02:27:35;;;;;;;0.80;0.80;;;;;;;8.20;100.00;98446.25;4167254;28;20205;-49
2023/12/30 02:29:37;;;;;;;1.00;1.00;;;;;;;8.26;100.00;98440.72;4172061;28;20330;-48
2023/12/30 02:31:46;;;;;;;0.73;0.73;;;;;;;8.26;100.00;98445.31;4166193;28;20263;-49
2023/12/30 02:33:48;;;;;;;1.33;1.33;;;;;;;8.20;100.00;98455.28;4191654;28;20214;-50
2023/12/30 02:35:50;;;;;;;0.77;0.77;;;;;;;8.27;100.00;98449.69;4168946;28;20257;-50
2023/12/30 02:37:52;;;;;;;0.70;0.70;;;;;;;8.24;100.00;98447.47;4169598;28;20219;-49
2023/12/30 02:39:53;;;;;;;1.15;1.13;;;;;;;8.23;100.00;98451.25;4170757;28;20228;-50
2023/12/30 02:41:55;;;;;;;0.70;0.70;;;;;;;8.24;100.00;98452.91;4171197;28;20308;-50
2023/12/30 02:44:00;;;;;;;0.90;0.90;;;;;;;8.26;100.00;98446.16;4170953;28;20208;-51
2023/12/30 02:46:02;;;;;;;1.25;0.93;;;;;;;8.28;100.00;98459.56;4167421;28;20274;-50
2023/12/30 02:48:04;;;;;;;1.17;1.17;;;;;;;8.31;100.00;98456.34;4170234;28;20282;-49
2023/12/30 02:50:07;;;;;;;1.17;1.17;;;;;;;8.31;100.00;98453.63;4172856;28;20255;-50
2023/12/30 02:52:08;;;;;;;0.80;0.80;;;;;;;8.30;100.00;98457.41;4176328;28;20646;-49
2023/12/30 02:54:10;;;;;;;1.48;1.38;;;;;;;8.34;100.00;98458.63;4175072;28;20247;-49
2023/12/30 02:56:25;;;;;;;0.68;0.68;;;;;;;8.36;100.00;98456.47;4168669;28;20275;-49
2023/12/30 02:58:27;;;;;;;2.38;0.70;;;;;;;8.31;100.00;98459.06;4168686;28;20621;-49
2023/12/30 03:00:29;;;;;;;1.15;1.08;;;;;;;8.32;100.00;98466.19;4168433;28;20251;-49
2023/12/30 03:02:31;;;;;;;0.70;0.70;;;;;;;8.31;100.00;98459.06;4172341;28;20203;-50
2023/12/30 03:04:33;;;;;;;0.77;0.77;;;;;;;8.32;100.00;98460.72;4168350;28;20211;-50
2023/12/30 03:06:35;;;;;;;1.00;0.98;;;;;;;8.31;100.00;98464.53;4171706;28;20265;-50
2023/12/30 03:08:37;;;;;;;1.48;1.20;;;;;;;8.32;100.00;98461.56;4166913;28;20232;-50
2023/12/30 03:10:38;;;;;;;1.23;1.10;;;;;;;8.31;100.00;98459.06;4169948;28;20613;-49
2023/12/30 03:12:40;;;;;;;1.38;1.27;;;;;;;8.28;100.00;98460.38;4172023;28;20593;-49
2023/12/30 03:14:42;;;;;;;3.22;1.63;;;;;;;8.26;100.00;98456.22;4177459;28;20286;-49
2023/12/30 03:16:44;;;;;;;1.65;1.13;;;;;;;8.24;100.00;98453.75;4168639;28;20254;-50
2023/12/30 03:18:46;;;;;;;0.90;0.90;;;;;;;8.27;100.00;98457.88;4177324;28;20282;-50
2023/12/30 03:20:48;;;;;;;1.10;1.10;;;;;;;8.31;100.00;98451.75;4167691;28;20697;-51
2023/12/30 03:22:50;;;;;;;1.17;1.17;;;;;;;8.32;100.00;98456.13;4168379;28;20211;-50
2023/12/30 03:24:51;;;;;;;6.13;1.73;;;;;;;8.32;100.00;98460.72;4168757;28;20204;-50
2023/12/30 03:26:53;;;;;;;1.38;1.33;;;;;;;8.29;100.00;98456.56;4166312;28;20248;-50
2023/12/30 03:28:55;;;;;;;1.55;1.35;;;;;;;8.34;100.00;98459.44;4167390;28;20244;-50
2023/12/30 03:30:57;;;;;;;1.85;1.20;;;;;;;8.37;100.00;98452.69;4171262;28;20326;-50
2023/12/30 03:32:59;;;;;;;0.82;0.82;;;;;;;8.38;100.00;98452.44;4170281;28;20208;-50
2023/12/30 03:35:01;;;;;;;0.85;0.85;;;;;;;8.32;100.00;98455.28;4166325;28;20223;-50
2023/12/30 03:37:03;;;;;;;1.10;1.00;;;;;;;8.31;100.00;98465.38;4170886;28;20243;-51
2023/12/30 03:39:05;;;;;;;3.50;1.65;;;;;;;8.35;100.00;98460.28;4169632;28;20220;-51
2023/12/30 03:41:06;;;;;;;4.25;1.48;;;;;;;8.37;100.00;98463.59;4169007;28;20255;-50
2023/12/30 03:43:08;;;;;;;0.60;0.60;;;;;;;8.35;100.00;98454.81;4165774;28;20217;-50
2023/12/30 03:45:10;;;;;;;2.90;1.73;;;;;;;8.32;100.00;98464.28;4167009;28;20697;-51
2023/12/30 03:47:12;;;;;;;10.45;1.20;;;;;;;8.41;100.00;98453.88;4170607;28;20220;-50
2023/12/30 03:49:13;;;;;;;0.93;0.70;;;;;;;8.43;100.00;98462.63;4169170;28;20228;-52
2023/12/30 03:51:15;;;;;;;1.23;1.20;;;;;;;8.45;100.00;98458.59;4170066;28;20820;-51
2023/12/30 03:53:17;;;;;;;6.45;1.48;;;;;;;8.45;100.00;98471.41;4169235;28;20671;-50
2023/12/30 03:55:19;;;;;;;0.98;0.98;;;;;;;8.53;100.00;98460.13;4152680;28;20201;-50
2023/12/30 03:57:21;;;;;;;1.45;1.10;;;;;;;8.50;100.00;98449.69;4167197;28;20239;-51
2023/12/30 03:59:22;;;;;;;1.77;0.75;;;;;;;8.42;100.00;98467.25;4175804;28;20712;-50
2023/12/30 04:01:25;;;;;;;0.60;0.60;;;;;;;8.46;100.00;98473.91;4160741;28;20206;-50
2023/12/30 04:03:27;;;;;;;2.35;2.25;;;;;;;8.48;100.00;98479.13;4176706;28;20702;-50
2023/12/30 04:05:28;;;;;;;1.15;1.13;;;;;;;8.51;100.00;98476.75;4172849;28;20203;-50
2023/12/30 04:07:30;;;;;;;0.75;0.75;;;;;;;8.52;100.00;98491.19;4169528;28;20209;-50
2023/12/30 04:09:32;;;;;;;1.00;1.00;;;;;;;8.49;100.00;98476.13;4170519;28;20315;-50
2023/12/30 04:11:34;;;;;;;0.95;0.95;;;;;;;8.53;100.00;98473.75;4167303;28;20282;-50
2023/12/30 04:13:36;;;;;;;0.85;0.85;;;;;;;8.48;100.00;98476.38;4167913;28;20212;-50
2023/12/30 04:15:38;;;;;;;2.15;1.02;;;;;;;8.49;100.00;98473.41;4152530;28;20240;-50
2023/12/30 04:17:39;;;;;;;0.77;0.77;;;;;;;8.50;100.00;98479.69;4171696;28;20212;-50
2023/12/30 04:19:41;;;;;;;1.30;1.10;;;;;;;8.49;100.00;98478.03;4175402;28;20308;-51
2023/12/30 04:21:43;;;;;;;0.77;0.73;;;;;;;8.50;100.00;98476.97;4175296;28;20204;-49
2023/12/30 04:23:45;;;;;;;1.67;1.58;;;;;;;8.48;100.00;98471.75;4176953;28;20203;-49
2023/12/30 04:25:47;;;;;;;1.08;1.00;;;;;;;8.55;100.00;98468.91;4166893;28;20203;-50
2023/12/30 04:27:49;;;;;;;0.95;0.85;;;;;;;8.51;100.00;98482.19;4168873;28;20209;-48
2023/12/30 04:29:51;;;;;;;1.23;1.17;;;;;;;8.49;100.00;98478.03;4175443;28;20231;-50
2023/12/30 04:31:52;;;;;;;12.40;1.17;;;;;;;8.52;100.00;98485.75;4168830;28;20219;-50
2023/12/30 04:33:54;;;;;;;1.33;0.90;;;;;;;8.51;100.00;98486.81;4166525;28;20230;-49
2023/12/30 04:35:56;;;;;;;1.20;1.10;;;;;;;8.42;100.00;98482.78;4170548;28;20605;-51
2023/12/30 04:37:58;;;;;;;6.97;1.67;;;;;;;8.45;100.00;98491.31;4169037;28;20207;-50
2023/12/30 04:40:00;;;;;;;2.00;0.80;;;;;;;8.42;100.00;98482.78;4167774;28;20228;-50
2023/12/30 04:42:02;;;;;;;1.23;1.23;;;;;;;8.42;100.00;98480.88;4168142;28;20251;-50
2023/12/30 04:44:03;;;;;;;0.77;0.77;;;;;;;8.47;100.00;98491.06;4176271;28;20234;-50
2023/12/30 04:46:05;;;;;;;1.42;1.20;;;;;;;8.44;100.00;98486.09;4167723;28;20220;-51
2023/12/30 04:48:07;;;;;;;7.28;1.00;;;;;;;8.48;100.00;98487.28;4167970;28;20215;-50
2023/12/30 04:50:10;;;;;;;7.22;1.58;;;;;;;8.42;100.00;98494.50;4168421;28;20255;-49
2023/12/30 04:52:12;;;;;;;1.05;1.00;;;;;;;8.41;100.00;98500.22;4174745;28;20208;-50
2023/12/30 04:54:14;;;;;;;1.70;1.58;;;;;;;8.41;100.00;98490.13;4169165;28;20904;-50
2023/12/30 04:56:16;;;;;;;0.95;0.95;;;;;;;8.41;100.00;98487.41;4177900;28;20208;-49
2023/12/30 04:58:18;;;;;;;1.65;1.27;;;;;;;8.44;100.00;98486.09;4168461;28;20204;-49
2023/12/30 05:00:20;;;;;;;4.88;1.88;;;;;;;8.45;100.00;98495.94;4168553;28;20605;-50
2023/12/30 05:02:24;;;;;;;4.72;1.00;;;;;;;8.50;100.00;98496.06;4168560;28;20686;-50
2023/12/30 05:04:29;;;;;;;1.65;1.55;;;;;;;8.47;100.00;98499.25;4170033;28;20220;-50
2023/12/30 05:06:31;;;;;;;2.85;1.88;;;;;;;8.41;100.00;98492.03;4169654;28;20211;-51
2023/12/30 05:08:32;;;;;;;0.82;0.82;;;;;;;8.42;100.00;98494.50;4169765;28;20274;-50
2023/12/30 05:10:34;;;;;;;1.38;0.90;;;;;;;8.42;100.00;98499.16;4168763;28;20203;-50
2023/12/30 05:12:36;;;;;;;1.45;0.98;;;;;;;8.36;100.00;98500.91;4165115;28;20209;-51
2023/12/30 05:14:38;;;;;;;1.70;1.60;;;;;;;8.38;100.00;98506.13;4168646;28;20626;-51
2023/12/30 05:16:46;;;;;;;0.88;0.88;;;;;;;8.42;100.00;98510.06;4168999;28;20601;-51
2023/12/30 05:18:47;;;;;;;2.30;1.10;;;;;;;8.40;100.00;98507.56;4168406;28;20323;-49
2023/12/30 05:20:49;;;;;;;0.70;0.70;;;;;;;8.41;100.00;98506.50;4167013;28;20235;-51
2023/12/30 05:22:51;;;;;;;0.80;0.80;;;;;;;8.39;100.00;98510.50;4166916;28;20211;-50
2023/12/30 05:24:53;;;;;;;2.13;1.60;;;;;;;8.37;100.00;98512.66;4169118;28;20211;-51
2023/12/30 05:26:54;;;;;;;0.75;0.75;;;;;;;8.44;100.00;98524.28;4167800;28;20278;-50
2023/12/30 05:28:57;;;;;;;1.02;1.00;;;;;;;8.47;100.00;98521.06;4175635;28;20239;-50
2023/12/30 05:30:59;;;;;;;1.08;1.05;;;;;;;8.49;100.00;98532.59;4169569;28;20208;-50
2023/12/30 05:33:01;;;;;;;1.30;0.95;;;;;;;8.48;100.00;98525.47;4173094;28;20261;-50
2023/12/30 05:35:04;;;;;;;0.98;0.90;;;;;;;8.46;100.00;98517.53;4171832;28;20270;-50
2023/12/30 05:37:06;;;;;;;3.85;0.88;;;;;;;8.41;100.00;98514.66;4175281;28;20307;-51
2023/12/30 05:39:08;;;;;;;1.23;0.77;;;;;;;8.43;100.00;98517.16;4171990;28;20239;-50
2023/12/30 05:41:10;;;;;;;2.30;1.15;;;;;;;8.48;100.00;98520.03;4170969;28;20310;-49
2023/12/30 05:43:11;;;;;;;4.47;1.83;;;;;;;8.49;100.00;98516.22;4170418;28;20211;-51
2023/12/30 05:45:13;;;;;;;2.30;1.52;;;;;;;8.55;100.00;98515.28;4172138;28;20248;-50
2023/12/30 05:47:15;;;;;;;1.55;1.45;;;;;;;8.50;100.00;98524.13;4168669;28;20590;-50
2023/12/30 05:49:17;;;;;;;1.95;1.67;;;;;;;8.52;100.00;98529.38;4186921;28;20230;-51
2023/12/30 05:51:18;;;;;;;4.82;0.90;;;;;;;8.55;100.00;98520.72;4173749;28;20243;-49
2023/12/30 05:53:23;;;;;;;6.43;1.25;;;;;;;8.56;100.00;98527.84;4171496;28;20227;-50
2023/12/30 05:55:25;;;;;;;0.82;0.82;;;;;;;8.52;100.00;98524.75;4172358;28;20212;-51
2023/12/30 05:57:27;;;;;;;2.67;1.00;;;;;;;8.55;100.00;98526.19;4171968;28;20211;-50
2023/12/30 05:59:30;;;;;;;2.58;1.40;;;;;;;8.54;100.00;98529.97;4168054;28;20225;-48
2023/12/30 06:01:32;;;;;;;0.77;0.77;;;;;;;8.54;100.00;98529.97;4170268;28;20211;-50
2023/12/30 06:03:35;;;;;;;2.08;1.08;;;;;;;8.57;100.00;98534.94;4172053;28;20687;-50
2023/12/30 06:05:37;;;;;;;0.88;0.88;;;;;;;8.50;100.00;98534.25;4172568;28;20707;-50
2023/12/30 06:07:39;;;;;;;1.10;1.10;;;;;;;8.54;100.00;98540.88;4170138;28;20267;-49
2023/12/30 06:09:41;;;;;;;1.23;1.20;;;;;;;8.56;100.00;98544.19;4170321;28;20266;-50
2023/12/30 06:11:43;;;;;;;0.77;0.77;;;;;;;8.58;100.00;98544.78;4170727;28;20215;-49
2023/12/30 06:13:45;;;;;;;0.77;0.77;;;;;;;8.62;100.00;98546.00;4179241;28;20237;-49
2023/12/30 06:15:50;;;;;;;0.75;0.75;;;;;;;8.53;100.00;98545.50;4172351;28;20291;-50
2023/12/30 06:17:52;;;;;;;2.17;1.38;;;;;;;8.54;100.00;98549.06;4170016;28;20649;-50
2023/12/30 06:19:54;;;;;;;0.93;0.93;;;;;;;8.50;100.00;98556.88;4169024;28;20265;-50
2023/12/30 06:21:56;;;;;;;2.10;2.00;;;;;;;8.60;100.00;98556.28;4170551;28;20247;-50
2023/12/30 06:23:58;;;;;;;1.73;1.10;;;;;;;8.60;100.00;98550.81;4167707;28;20322;-50
2023/12/30 06:26:01;;;;;;;0.90;0.90;;;;;;;8.62;100.00;98556.91;4168775;28;20306;-50
2023/12/30 06:28:03;;;;;;;4.22;1.20;;;;;;;8.59;100.00;98562.81;4169520;28;20216;-50
2023/12/30 06:30:06;;;;;;;1.30;1.30;;;;;;;8.59;100.00;98562.81;4178674;28;20546;-50
2023/12/30 06:32:08;;;;;;;0.90;0.90;;;;;;;8.62;100.00;98567.81;4167704;28;20212;-50
2023/12/30 06:34:10;;;;;;;2.33;1.05;;;;;;;8.61;100.00;98560.69;4167822;28;20215;-50
2023/12/30 06:36:20;;;;;;;0.73;0.73;;;;;;;8.63;100.00;98566.75;4169525;28;20802;-49
2023/12/30 06:38:22;;;;;;;1.25;1.10;;;;;;;8.66;100.00;98572.53;4171167;28;20665;-50
2023/12/30 06:40:23;;;;;;;1.33;1.23;;;;;;;8.59;100.00;98571.00;4175289;28;20262;-50
2023/12/30 06:42:25;;;;;;;1.00;1.00;;;;;;;8.61;100.00;98561.50;4171880;28;20236;-50
2023/12/30 06:44:27;;;;;;;1.00;1.00;;;;;;;8.56;100.00;98563.28;4174050;28;20686;-48
2023/12/30 06:46:28;;;;;;;6.47;1.27;;;;;;;8.57;100.00;98565.78;4169076;28;20259;-50
2023/12/30 06:48:30;;;;;;;0.95;0.95;;;;;;;8.62;100.00;98570.53;4172829;28;20258;-51
2023/12/30 06:50:32;;;;;;;4.03;1.23;;;;;;;8.58;100.00;98562.00;4179027;28;20303;-50
2023/12/30 06:52:34;;;;;;;0.85;0.85;;;;;;;8.60;100.00;98572.66;4171114;28;20208;-50
2023/12/30 06:54:36;;;;;;;1.50;1.20;;;;;;;8.63;100.00;98569.47;4168827;28;20274;-50
2023/12/30 06:56:37;;;;;;;1.23;1.23;;;;;;;8.61;100.00;98577.88;4166628;28;20213;-49
2023/12/30 06:58:41;;;;;;;2.05;1.95;;;;;;;8.64;100.00;98573.84;4170401;28;20780;-52
2023/12/30 07:00:43;;;;;;;1.67;1.67;;;;;;;8.63;100.00;98583.09;4177511;28;20196;-50
2023/12/30 07:02:46;;;;;;;4.80;1.52;;;;;;;8.64;100.00;98579.31;4167102;28;20597;-50
2023/12/30 07:04:48;;;;;;;1.02;1.02;;;;;;;8.63;100.00;98578.47;4169800;28;20260;-51
2023/12/30 07:06:50;;;;;;;1.55;1.45;;;;;;;8.59;100.00;98587.34;4166829;28;20240;-51
2023/12/30 07:08:51;;;;;;;1.20;1.10;;;;;;;8.61;100.00;98583.31;4201145;28;20219;-50
2023/12/30 07:10:53;;;;;;;0.80;0.80;;;;;;;8.62;100.00;98587.72;4165932;28;20657;-50
2023/12/30 07:12:57;;;;;;;1.00;1.00;;;;;;;8.62;100.00;98597.81;4172116;28;20215;-50
2023/12/30 07:14:59;;;;;;;9.05;3.65;;;;;;;8.61;100.00;98593.44;4172203;28;20206;-51
2023/12/30 07:17:01;;;;;;;0.60;0.60;;;;;;;8.64;100.00;98601.13;4168374;28;20262;-51
2023/12/30 07:19:03;;;;;;;1.05;0.95;;;;;;;8.60;100.00;98606.22;4166724;28;20228;-51
2023/12/30 07:21:05;;;;;;;1.70;1.60;;;;;;;8.64;100.00;98599.25;4167680;28;20211;-51
2023/12/30 07:23:07;;;;;;;2.00;1.38;;;;;;;8.61;100.00;98607.88;4170631;28;20251;-50
2023/12/30 07:25:09;;;;;;;1.67;1.65;;;;;;;8.63;100.00;98591.28;4169590;28;20212;-51
2023/12/30 07:27:11;;;;;;;4.70;1.13;;;;;;;8.63;100.00;98594.00;4171930;28;20209;-51
2023/12/30 07:29:13;;;;;;;1.70;1.20;;;;;;;8.56;100.00;98605.00;4177191;28;20301;-50
2023/12/30 07:31:15;;;;;;;1.40;1.30;;;;;;;8.59;100.00;98598.25;4171074;28;20234;-52
2023/12/30 07:33:17;;;;;;;1.35;1.13;;;;;;;8.59;100.00;98598.25;4170945;28;20208;-51
2023/12/30 07:35:19;;;;;;;1.58;1.52;;;;;;;8.53;100.00;98600.03;4198231;28;20249;-50
2023/12/30 07:37:20;;;;;;;1.02;0.93;;;;;;;8.57;100.00;98595.78;4169300;28;20211;-50
2023/12/30 07:39:22;;;;;;;0.90;0.90;;;;;;;8.58;100.00;98596.59;4170757;28;20310;-50
2023/12/30 07:41:24;;;;;;;1.33;1.23;;;;;;;8.59;100.00;98587.34;4177416;28;20266;-50
2023/12/30 07:43:26;;;;;;;3.97;1.52;;;;;;;8.61;100.00;98601.59;4169557;28;20211;-51
2023/12/30 07:45:28;;;;;;;1.58;1.48;;;;;;;8.58;100.00;98602.91;4170462;28;20211;-52
2023/12/30 07:47:29;;;;;;;2.53;1.20;;;;;;;8.56;100.00;98601.47;4173766;28;20227;-50
2023/12/30 07:49:31;;;;;;;1.33;1.30;;;;;;;8.57;100.00;98614.03;4167929;28;20220;-51
2023/12/30 07:51:33;;;;;;;1.52;1.10;;;;;;;8.60;100.00;98606.22;4168703;28;20247;-51
2023/12/30 07:53:34;;;;;;;4.10;1.40;;;;;;;8.60;100.00;98616.28;4170067;28;20219;-57
2023/12/30 07:55:36;;;;;;;2.10;2.03;;;;;;;8.61;100.00;98607.06;4170008;28;20212;-51
2023/12/30 07:57:38;;;;;;;1.80;1.27;;;;;;;8.64;100.00;98612.03;4152405;28;20758;-51
2023/12/30 07:59:40;;;;;;;0.82;0.82;;;;;;;8.61;100.00;98613.34;4168968;28;20219;-51
2023/12/30 08:01:46;;;;;;;1.13;1.13;;;;;;;8.65;100.00;98608.22;4166555;28;20204;-52
2023/12/30 08:03:47;;;;;;;3.80;1.10;;;;;;;8.65;100.00;98608.22;4170216;28;20291;-51
2023/12/30 08:05:49;;;;;;;1.42;0.80;;;;;;;8.65;100.00;98611.81;4176509;28;20570;-51
2023/12/30 08:07:51;;;;;;;1.27;0.90;;;;;;;8.71;100.00;98615.47;4172245;28;20662;-51
2023/12/30 08:09:53;;;;;;;1.20;1.20;;;;;;;8.64;100.00;98617.50;4168877;28;20679;-51
2023/12/30 08:11:55;;;;;;;9.70;1.30;;;;;;;8.74;100.00;98623.22;4164721;28;20219;-50
2023/12/30 08:14:03;;;;;;;0.73;0.73;;;;;;;8.71;100.00;98619.06;4168181;28;20215;-50
2023/12/30 08:16:06;;;;;;;0.80;0.80;;;;;;;8.71;100.00;98618.22;4167656;28;20214;-50
2023/12/30 08:18:08;;;;;;;1.35;1.20;;;;;;;8.70;100.00;98616.56;4169607;28;20253;-51
2023/12/30 08:20:10;;;;;;;1.48;1.38;;;;;;;8.77;100.00;98606.34;4170304;28;20212;-51
2023/12/30 08:22:12;;;;;;;4.28;1.75;;;;;;;8.73;100.00;98610.59;4168509;28;20219;-49
2023/12/30 08:24:16;;;;;;;1.75;1.42;;;;;;;8.78;100.00;98605.28;4168132;28;20208;-51
2023/12/30 08:26:18;;;;;;;2.15;1.30;;;;;;;8.75;100.00;98608.50;4176905;28;20212;-51
2023/12/30 08:28:20;;;;;;;1.40;1.40;;;;;;;8.68;100.00;98605.06;4165562;28;20269;-50
2023/12/30 08:30:22;;;;;;;0.82;0.82;;;;;;;8.72;100.00;98598.03;4171343;28;20263;-49
2023/12/30 08:32:24;;;;;;;0.80;0.80;;;;;;;8.73;100.00;98605.16;4164309;28;20244;-50
2023/12/30 08:34:27;;;;;;;1.33;1.13;;;;;;;8.71;100.00;98599.13;4165002;28;20979;-48
2023/12/30 08:36:30;;;;;;;1.65;1.55;;;;;;;8.72;100.00;98598.03;4158805;28;20259;-51
2023/12/30 08:38:32;;;;;;;1.58;1.45;;;;;;;8.75;100.00;98605.78;4175463;28;20281;-50
2023/12/30 08:40:34;;;;;;;2.15;1.50;;;;;;;8.74;100.00;98604.13;4170014;28;20207;-50
2023/12/30 08:42:38;;;;;;;6.15;1.85;;;;;;;8.73;100.00;98613.34;4167043;28;20294;-50
2023/12/30 08:44:45;;;;;;;1.40;1.30;;;;;;;8.81;100.00;98607.56;4176115;28;20212;-50
2023/12/30 08:46:47;;;;;;;3.70;1.50;;;;;;;8.77;100.00;98617.25;4170555;28;20223;-50
2023/12/30 08:48:49;;;;;;;0.90;0.90;;;;;;;8.85;100.00;98608.72;4169813;28;20307;-50
2023/12/30 08:50:51;;;;;;;1.15;1.08;;;;;;;8.85;100.00;98614.19;4170967;28;20320;-50
2023/12/30 08:52:52;;;;;;;0.93;0.93;;;;;;;8.87;100.00;98612.88;4170327;28;20208;-50
2023/12/30 08:54:54;;;;;;;1.40;1.30;;;;;;;8.91;100.00;98619.53;4169518;28;20262;-50
2023/12/30 08:56:57;;;;;;;1.38;1.27;;;;;;;8.91;100.00;98619.53;4169147;28;20215;-50
2023/12/30 08:59:00;;;;;;;0.85;0.80;;;;;;;9.02;100.00;98626.06;4165114;28;20232;-51
2023/12/30 09:01:02;;;;;;;1.83;1.65;;;;;;;9.00;100.00;98617.25;4168780;28;20664;-50
2023/12/30 09:03:04;;;;;;;0.73;0.73;;;;;;;9.03;100.00;98616.81;4174321;28;20212;-50
2023/12/30 09:05:07;;;;;;;1.00;1.00;;;;;;;9.01;100.00;98618.94;4170510;28;20222;-49
2023/12/30 09:07:09;;;;;;;1.20;1.00;;;;;;;9.05;100.00;98620.13;4166754;28;20563;-50
2023/12/30 09:09:11;;;;;;;1.83;1.33;;;;;;;9.02;100.00;98626.06;4167212;28;20239;-49
2023/12/30 09:11:20;;;;;;;1.65;1.55;;;;;;;9.02;100.00;98620.59;4167752;28;20343;-51
2023/12/30 09:13:23;;;;;;;1.23;1.23;;;;;;;9.12;100.00;98620.81;4169291;28;20593;-51
2023/12/30 09:15:25;;;;;;;1.35;1.08;;;;;;;9.09;100.00;98632.22;4170963;28;20306;-51
2023/12/30 09:17:27;;;;;;;1.20;0.95;;;;;;;9.11;100.00;98635.53;4165357;28;20298;-51
2023/12/30 09:19:29;;;;;;;1.45;1.35;;;;;;;9.10;100.00;98634.72;4169407;28;20285;-51
2023/12/30 09:21:32;;;;;;;1.10;1.00;;;;;;;9.12;100.00;98637.19;4177646;28;20669;-51
2023/12/30 09:23:34;;;;;;;1.40;1.35;;;;;;;9.14;100.00;98633.16;4168702;28;20254;-51
2023/12/30 09:25:36;;;;;;;2.42;1.42;;;;;;;9.07;100.00;98626.16;4167644;28;20267;-51
2023/12/30 09:27:38;;;;;;;1.98;1.88;;;;;;;9.07;100.00;98628.88;4169735;28;20216;-50
2023/12/30 09:29:40;;;;;;;3.53;2.40;;;;;;;9.06;100.00;98638.16;4169475;28;20297;-50
2023/12/30 09:31:42;;;;;;;1.13;1.10;;;;;;;9.08;100.00;98647.75;4169407;28;20232;-51
2023/12/30 09:33:44;;;;;;;4.07;3.78;;;;;;;9.04;100.00;98645.75;4166466;28;20315;-50
2023/12/30 09:35:45;;;;;;;2.35;1.75;;;;;;;9.00;100.00;98633.63;4172104;28;20205;-51